Time;durP1;ratioP1;P1;durP2;ratioP2;P2;SDS_P1;SDS_P2;PMS_P1;PMS_P2;Temp;Humidity;BMP_temperature;BMP_pressure;BME280_temperature;BME280_humidity;BME280_pressure;Samples;Min_cycle;Max_cycle;Signal;HPM_P1;HPM_P2
2022/08/05 00:00:22;;;;;;;5.15;3.30;;;;;;;24.61;47.47;100169.06;5076573;28;20044;-76
2022/08/05 00:02:54;;;;;;;7.05;3.33;;;;;;;24.69;47.60;100174.41;5075897;28;20048;-76
2022/08/05 00:05:23;;;;;;;5.43;3.10;;;;;;;24.38;48.14;100171.78;5076153;28;20446;-76
2022/08/05 00:08:11;;;;;;;4.65;3.30;;;;;;;24.35;47.74;100164.00;5074718;28;20048;-77
2022/08/05 00:11:00;;;;;;;6.85;3.55;;;;;;;24.19;49.24;100167.66;5075916;28;20504;-75
2022/08/05 00:13:30;;;;;;;5.57;2.90;;;;;;;24.35;47.43;100161.28;5075788;28;20134;-75
2022/08/05 00:16:08;;;;;;;5.55;3.05;;;;;;;24.44;46.22;100170.22;5075875;28;20090;-75
2022/08/05 00:18:42;;;;;;;;;;;;;;;24.44;50.38;100168.34;5076618;28;20044;-75
2022/08/05 00:21:12;;;;;;;6.25;2.92;;;;;;;24.19;49.21;100164.09;5075784;28;20267;-76
2022/08/05 00:23:42;;;;;;;6.38;3.40;;;;;;;24.21;51.02;100170.19;5075713;28;20044;-76
2022/08/05 00:26:15;;;;;;;4.65;3.38;;;;;;;24.03;50.25;100161.47;5075484;28;20041;-76
2022/08/05 00:28:43;;;;;;;5.68;3.30;;;;;;;23.96;51.37;100166.81;5075795;28;20044;-75
2022/08/05 00:31:13;;;;;;;6.30;3.10;;;;;;;23.98;51.56;100162.03;5075381;28;20049;-75
2022/08/05 00:33:42;;;;;;;5.70;3.30;;;;;;;23.91;50.89;100164.63;5074308;28;20114;-75
2022/08/05 00:36:31;;;;;;;4.57;2.85;;;;;;;23.92;51.50;100160.88;5075718;28;20056;-75
2022/08/05 00:39:19;;;;;;;4.47;3.10;;;;;;;23.79;51.88;100163.34;5075356;28;20056;-75
2022/08/05 00:41:52;;;;;;;6.53;3.45;;;;;;;23.70;52.84;100161.69;5075356;28;20043;-75
2022/08/05 00:44:23;;;;;;;5.38;3.40;;;;;;;24.09;49.33;100163.50;5075491;28;20045;-74
2022/08/05 00:46:58;;;;;;;5.90;3.30;;;;;;;24.18;48.98;100156.94;5075154;28;20044;-76
2022/08/05 00:49:34;;;;;;;6.18;3.25;;;;;;;24.06;49.83;100158.41;5075629;28;20052;-74
2022/08/05 00:52:18;;;;;;;6.50;3.58;;;;;;;24.03;50.20;100169.66;5075361;28;20045;-74
2022/08/05 00:54:56;;;;;;;4.53;3.15;;;;;;;24.15;49.21;100155.44;5075107;28;20509;-75
2022/08/05 00:57:25;;;;;;;7.65;3.45;;;;;;;23.99;49.06;100161.84;5075341;28;20541;-74
2022/08/05 01:00:14;;;;;;;4.53;3.13;;;;;;;24.07;48.84;100155.50;5075118;28;20040;-74
2022/08/05 01:02:44;;;;;;;5.00;3.58;;;;;;;23.82;50.66;100152.09;5075166;28;20499;-73
2022/08/05 01:05:13;;;;;;;5.72;3.40;;;;;;;23.65;52.19;100158.69;5074726;28;20045;-74
2022/08/05 01:07:42;;;;;;;6.60;3.45;;;;;;;23.61;51.39;100151.88;5074899;28;20489;-75
2022/08/05 01:10:35;;;;;;;5.05;3.30;;;;;;;23.75;50.98;100142.97;5075106;28;20054;-74
2022/08/05 01:13:11;;;;;;;5.43;3.65;;;;;;;23.73;51.03;100155.88;5073553;28;20067;-74
2022/08/05 01:15:56;;;;;;;4.95;3.28;;;;;;;23.56;52.38;100154.28;5074830;28;20063;-74
2022/08/05 01:18:34;;;;;;;7.05;3.70;;;;;;;23.55;52.53;100155.31;5074707;28;20036;-73
2022/08/05 01:21:11;;;;;;;5.95;3.67;;;;;;;23.61;52.42;100150.00;5074754;28;20102;-73
2022/08/05 01:24:10;;;;;;;4.82;3.40;;;;;;;23.49;53.29;100150.56;5074617;28;20040;-74
2022/08/05 01:26:59;;;;;;;6.97;4.10;;;;;;;23.46;54.12;100143.63;5074905;28;20044;-73
2022/08/05 01:29:52;;;;;;;6.95;3.92;;;;;;;23.27;54.74;100150.34;5074587;28;20051;-74
2022/08/05 01:32:25;;;;;;;6.50;4.13;;;;;;;23.17;55.65;100144.25;5073226;28;20055;-73
2022/08/05 01:34:59;;;;;;;5.85;4.05;;;;;;;23.26;55.48;100147.75;5074772;28;20044;-73
2022/08/05 01:37:34;;;;;;;5.72;4.22;;;;;;;23.34;55.07;100145.00;5074433;28;20044;-73
2022/08/05 01:40:12;;;;;;;6.72;4.15;;;;;;;23.07;56.66;100149.91;5074055;28;20068;-74
2022/08/05 01:42:45;;;;;;;5.50;4.13;;;;;;;22.95;57.45;100147.72;5074260;28;20045;-73
2022/08/05 01:45:16;;;;;;;6.75;3.95;;;;;;;23.14;57.16;100144.59;5073848;28;20049;-77
2022/08/05 01:47:50;;;;;;;7.28;3.92;;;;;;;23.06;57.37;100142.75;5073616;28;20048;-76
2022/08/05 01:50:27;;;;;;;6.30;4.03;;;;;;;22.92;58.21;100156.22;5074334;28;20068;-76
2022/08/05 01:53:01;;;;;;;7.00;4.28;;;;;;;22.84;59.13;100148.94;5074031;28;20044;-78
2022/08/05 01:55:33;;;;;;;6.47;4.13;;;;;;;22.70;59.75;100150.47;5074067;28;20044;-78
2022/08/05 01:58:05;;;;;;;6.43;4.00;;;;;;;22.64;60.42;100143.00;5073992;28;20048;-77
2022/08/05 02:00:58;;;;;;;6.82;4.10;;;;;;;22.57;60.90;100148.25;5074016;28;20045;-77
2022/08/05 02:03:31;;;;;;;5.63;4.07;;;;;;;22.50;62.35;100144.56;5073895;28;20047;-78
2022/08/05 02:06:04;;;;;;;7.70;4.03;;;;;;;22.76;61.20;100157.06;5074010;28;20049;-78
2022/08/05 02:08:53;;;;;;;9.57;3.78;;;;;;;22.69;61.23;100154.22;5072754;28;20044;-77
2022/08/05 02:11:29;;;;;;;7.90;4.43;;;;;;;22.57;62.00;100159.13;5074048;28;20040;-80
2022/08/05 02:14:05;;;;;;;8.52;4.35;;;;;;;22.59;61.85;100152.72;5073510;28;20045;-79
2022/08/05 02:16:41;;;;;;;7.35;4.20;;;;;;;22.54;62.08;100142.34;5073816;28;20040;-79
2022/08/05 02:19:18;;;;;;;6.82;3.90;;;;;;;22.38;62.96;100148.63;5073385;28;20041;-76
2022/08/05 02:21:54;;;;;;;6.50;3.97;;;;;;;22.42;62.64;100154.59;5073716;28;20040;-76
2022/08/05 02:24:27;;;;;;;6.35;4.30;;;;;;;22.52;62.16;100156.09;5073557;28;20375;-77
2022/08/05 02:27:01;;;;;;;5.30;3.97;;;;;;;22.43;62.97;100156.28;5073884;28;20040;-83
2022/08/05 02:29:40;;;;;;;5.55;3.88;;;;;;;22.66;61.74;100151.81;5075728;28;20044;-84
2022/08/05 02:32:30;;;;;;;7.13;4.20;;;;;;;22.66;61.95;100153.69;5081405;28;20059;-85
2022/08/05 02:35:01;;;;;;;7.45;4.07;;;;;;;22.70;61.66;100150.47;5083210;28;20048;-85
2022/08/05 02:37:43;;;;;;;10.38;4.65;;;;;;;22.65;62.12;100144.69;5082466;28;20076;-84
2022/08/05 02:40:22;;;;;;;6.18;4.10;;;;;;;22.55;62.78;100144.03;5081161;28;20052;-85
2022/08/05 02:42:53;;;;;;;5.75;4.28;;;;;;;22.51;63.12;100142.69;5074426;28;20049;-84
2022/08/05 02:45:23;;;;;;;7.03;4.18;;;;;;;22.40;63.60;100143.03;5073824;28;20131;-85
2022/08/05 02:47:56;;;;;;;6.63;4.20;;;;;;;22.21;65.11;100152.38;5073171;28;20036;-80
2022/08/05 02:50:42;;;;;;;7.97;4.50;;;;;;;22.31;64.82;100149.50;5073205;28;20036;-81
2022/08/05 02:53:12;;;;;;;5.88;4.10;;;;;;;22.27;65.44;100147.09;5073023;28;20123;-81
2022/08/05 02:55:48;;;;;;;6.65;4.55;;;;;;;22.21;65.66;100147.81;5073219;28;20047;-81
2022/08/05 02:58:27;;;;;;;5.85;3.97;;;;;;;22.21;65.94;100142.38;5073335;28;20044;-75
2022/08/05 03:01:01;;;;;;;6.72;4.63;;;;;;;22.14;65.79;100144.06;5073331;28;20110;-77
2022/08/05 03:03:34;;;;;;;6.03;4.53;;;;;;;22.14;65.63;100138.63;5071934;28;20048;-79
2022/08/05 03:06:22;;;;;;;7.00;4.40;;;;;;;22.15;65.72;100140.31;5072852;28;20477;-79
2022/08/05 03:09:15;;;;;;;7.43;4.72;;;;;;;22.05;66.23;100141.47;5073066;28;20079;-83
2022/08/05 03:12:04;;;;;;;7.45;4.43;;;;;;;22.02;65.90;100137.25;5072765;28;20036;-77
2022/08/05 03:14:32;;;;;;;6.50;4.50;;;;;;;22.02;66.32;100130.97;5072900;28;20072;-74
2022/08/05 03:17:00;;;;;;;7.20;4.78;;;;;;;22.03;66.81;100133.50;5072827;28;20037;-76
2022/08/05 03:19:37;;;;;;;6.60;4.38;;;;;;;21.93;67.60;100133.66;5073088;28;20481;-74
2022/08/05 03:22:08;;;;;;;;;;;;;;;21.84;67.96;100131.09;5073126;28;20052;-75
2022/08/05 03:24:48;;;;;;;7.18;4.65;;;;;;;21.90;68.27;100127.69;5072785;28;19924;-76
2022/08/05 03:27:19;;;;;;;;;;;;;;;21.82;68.83;100136.72;5072994;28;20048;-77
2022/08/05 03:29:48;;;;;;;6.28;4.65;;;;;;;21.95;68.76;100133.50;5072712;28;19927;-75
2022/08/05 03:32:36;;;;;;;6.45;5.05;;;;;;;21.92;69.33;100136.56;5072998;28;20469;-75
2022/08/05 03:35:08;;;;;;;8.13;4.70;;;;;;;21.79;70.49;100130.75;5072563;28;20123;-74
2022/08/05 03:37:37;;;;;;;7.63;4.82;;;;;;;21.75;71.14;100137.53;5072708;28;20044;-76
2022/08/05 03:40:14;;;;;;;7.22;4.60;;;;;;;21.64;72.45;100136.84;5072715;28;20044;-77
2022/08/05 03:42:58;;;;;;;7.47;5.00;;;;;;;21.56;73.15;100127.84;5071459;28;20072;-77
2022/08/05 03:45:28;;;;;;;6.07;5.10;;;;;;;21.66;72.91;100125.81;5072481;28;20543;-77
2022/08/05 03:48:16;;;;;;;7.90;5.13;;;;;;;21.63;73.28;100128.88;5071392;28;20056;-75
2022/08/05 03:50:55;;;;;;;6.28;4.93;;;;;;;21.68;73.43;100124.63;5072902;28;20037;-76
2022/08/05 03:53:59;;;;;;;7.13;4.80;;;;;;;21.80;72.45;100127.00;5072842;28;20048;-76
2022/08/05 03:56:48;;;;;;;6.80;4.80;;;;;;;21.99;71.18;100132.13;5072817;28;20051;-75
2022/08/05 03:59:23;;;;;;;10.38;5.20;;;;;;;21.94;71.48;100123.66;5071091;28;20052;-75
2022/08/05 04:01:54;;;;;;;8.10;5.38;;;;;;;21.93;73.39;100125.53;5072669;28;20043;-75
2022/08/05 04:04:28;;;;;;;12.73;5.45;;;;;;;22.05;73.03;100131.47;5072093;28;20465;-75
2022/08/05 04:06:59;;;;;;;10.93;5.13;;;;;;;22.25;73.00;100132.00;5072334;28;20068;-75
2022/08/05 04:09:29;;;;;;;13.05;5.88;;;;;;;22.83;70.84;100131.75;5072787;28;20051;-84
2022/08/05 04:12:03;;;;;;;12.10;4.85;;;;;;;23.62;64.90;100139.97;5076690;28;20068;-84
2022/08/05 04:14:50;;;;;;;8.68;4.88;;;;;;;24.31;61.39;100129.94;5076051;28;20054;-85
2022/08/05 04:17:19;;;;;;;9.10;4.72;;;;;;;24.66;60.39;100131.16;5075632;28;20119;-85
2022/08/05 04:19:48;;;;;;;7.72;4.90;;;;;;;24.73;60.53;100123.94;5075041;28;20075;-84
2022/08/05 04:22:25;;;;;;;9.27;5.15;;;;;;;25.26;58.49;100132.88;5075950;28;20493;-83
2022/08/05 04:24:53;;;;;;;7.68;4.80;;;;;;;25.74;56.41;100126.97;5076155;28;20040;-84
2022/08/05 04:27:22;;;;;;;5.43;4.40;;;;;;;25.61;54.86;100122.16;5075926;28;20125;-80
2022/08/05 04:30:11;;;;;;;6.97;4.40;;;;;;;25.52;54.16;100126.91;5075651;28;20040;-80
2022/08/05 04:32:41;;;;;;;9.82;4.80;;;;;;;25.17;56.02;100127.69;5074842;28;20122;-83
2022/08/05 04:35:10;;;;;;;7.32;4.80;;;;;;;24.62;58.42;100124.38;5075573;28;20048;-79
2022/08/05 04:37:47;;;;;;;8.20;4.80;;;;;;;24.53;58.81;100129.06;5075578;28;20044;-80
2022/08/05 04:40:34;;;;;;;8.13;4.65;;;;;;;24.85;56.72;100124.31;5075730;28;20060;-82
2022/08/05 04:43:04;;;;;;;7.72;4.57;;;;;;;24.81;56.76;100123.84;5075597;28;20102;-80
2022/08/05 04:45:38;;;;;;;8.95;4.72;;;;;;;25.02;56.37;100131.31;5075751;28;20040;-83
2022/08/05 04:48:21;;;;;;;7.55;4.28;;;;;;;25.06;54.87;100135.34;5075297;28;20134;-82
2022/08/05 04:50:56;;;;;;;8.50;4.10;;;;;;;25.26;52.54;100126.56;5075934;28;20048;-81
2022/08/05 04:53:38;;;;;;;6.88;4.00;;;;;;;25.71;51.94;100130.09;5075513;28;20117;-79
2022/08/05 04:56:07;;;;;;;9.48;4.50;;;;;;;26.68;49.14;100122.16;5075344;28;20044;-77
2022/08/05 04:58:55;;;;;;;6.47;4.25;;;;;;;27.46;45.47;100125.56;5075114;28;20477;-77
2022/08/05 05:01:23;;;;;;;9.80;3.90;;;;;;;28.04;44.52;100137.75;5074797;28;20067;-79
2022/08/05 05:04:12;;;;;;;6.32;3.90;;;;;;;28.16;43.00;100129.75;5074906;28;20047;-78
2022/08/05 05:06:40;;;;;;;6.55;3.40;;;;;;;28.41;41.02;100133.59;5075237;28;20072;-75
2022/08/05 05:09:17;;;;;;;6.15;3.22;;;;;;;27.86;41.90;100118.31;5074932;28;20547;-75
2022/08/05 05:11:45;;;;;;;6.20;3.10;;;;;;;27.95;40.35;100128.03;5075053;28;20110;-75
2022/08/05 05:14:23;;;;;;;9.07;3.50;;;;;;;27.74;41.87;100129.06;5074875;28;20044;-75
2022/08/05 05:16:59;;;;;;;8.63;3.60;;;;;;;28.03;42.27;100116.03;5074913;28;20043;-74
2022/08/05 05:19:27;;;;;;;5.85;3.30;;;;;;;28.34;40.18;100121.78;5074442;28;20120;-73
2022/08/05 05:22:11;;;;;;;6.60;3.58;;;;;;;29.53;38.18;100127.06;5073254;28;20123;-72
2022/08/05 05:24:55;;;;;;;6.85;3.50;;;;;;;28.97;43.94;100119.41;5074645;28;20397;-75
2022/08/05 05:27:28;;;;;;;8.13;4.05;;;;;;;29.26;42.14;100120.81;5074339;28;20040;-75
2022/08/05 05:30:13;;;;;;;10.13;3.63;;;;;;;29.46;43.39;100117.97;5072835;28;20045;-74
2022/08/05 05:32:55;;;;;;;;;;;;;;;30.07;38.12;100117.44;5074936;28;20048;-72
2022/08/05 05:35:27;;;;;;;8.82;3.60;;;;;;;30.26;36.37;100112.03;5074084;28;20011;-75
2022/08/05 05:38:03;;;;;;;9.32;3.38;;;;;;;30.50;35.80;100113.94;5073407;28;20040;-72
2022/08/05 05:40:34;;;;;;;10.85;3.80;;;;;;;31.24;34.70;100114.91;5073776;28;20522;-73
2022/08/05 05:43:03;;;;;;;7.15;3.47;;;;;;;31.08;34.93;100110.84;5074213;28;20037;-73
2022/08/05 05:45:35;;;;;;;6.15;3.22;;;;;;;30.55;35.72;100116.84;5073573;28;20051;-74
2022/08/05 05:48:15;;;;;;;6.43;3.65;;;;;;;31.44;33.71;100111.88;5074040;28;20045;-75
2022/08/05 05:50:43;;;;;;;6.50;3.10;;;;;;;31.47;33.49;100111.44;5073941;28;20128;-74
2022/08/05 05:53:12;;;;;;;7.18;3.53;;;;;;;31.84;34.21;100114.97;5073784;28;20071;-73
2022/08/05 05:55:50;;;;;;;6.47;2.97;;;;;;;32.22;33.96;100122.03;5073895;28;20426;-73
2022/08/05 05:58:28;;;;;;;4.45;2.90;;;;;;;32.34;32.79;100111.91;5073559;28;20124;-74
2022/08/05 06:01:00;;;;;;;7.82;3.17;;;;;;;32.92;31.15;100100.88;5073700;28;20044;-73
2022/08/05 06:03:40;;;;;;;7.28;2.85;;;;;;;32.82;30.42;100110.81;5072654;28;20110;-73
2022/08/05 06:06:28;;;;;;;5.60;2.65;;;;;;;33.03;31.29;100113.00;5073638;28;20044;-73
2022/08/05 06:08:58;;;;;;;9.45;2.83;;;;;;;33.28;30.63;100105.22;5073694;28;20036;-73
2022/08/05 06:11:28;;;;;;;5.85;2.65;;;;;;;33.95;27.95;100110.19;5073424;28;20052;-73
2022/08/05 06:13:56;;;;;;;5.53;2.50;;;;;;;33.95;26.96;100115.72;5071935;28;20040;-73
2022/08/05 06:16:27;;;;;;;6.28;2.60;;;;;;;34.21;26.17;100107.88;5073140;28;20036;-73
2022/08/05 06:19:05;;;;;;;5.05;2.30;;;;;;;34.70;26.32;100106.19;5073845;28;20040;-73
2022/08/05 06:21:36;;;;;;;6.28;2.70;;;;;;;34.28;27.99;100106.63;5073205;28;20086;-73
2022/08/05 06:24:09;;;;;;;9.75;3.00;;;;;;;34.76;26.53;100109.91;5073352;28;20044;-74
2022/08/05 06:26:41;;;;;;;8.10;2.78;;;;;;;35.04;25.72;100106.16;5072123;28;20482;-73
2022/08/05 06:29:21;;;;;;;5.28;2.45;;;;;;;34.83;26.13;100110.53;5073378;28;20493;-74
2022/08/05 06:32:09;;;;;;;8.50;2.60;;;;;;;34.75;26.67;100105.44;5073171;28;20043;-74
2022/08/05 06:34:57;;;;;;;6.43;2.50;;;;;;;35.23;25.31;100104.75;5073327;28;20053;-76
2022/08/05 06:37:27;;;;;;;6.22;2.30;;;;;;;35.02;25.32;100102.78;5073185;28;20105;-75
2022/08/05 06:40:16;;;;;;;5.05;2.80;;;;;;;35.38;25.78;100109.63;5072758;28;20079;-77
2022/08/05 06:42:49;;;;;;;;;;;;;;;35.03;26.73;100115.56;5073834;28;20523;-74
2022/08/05 06:45:21;;;;;;;6.13;2.65;;;;;;;35.01;25.80;100107.50;5072931;28;19920;-72
2022/08/05 06:48:09;;;;;;;6.45;2.70;;;;;;;35.00;26.12;100103.88;5072103;28;20051;-72
2022/08/05 06:50:57;;;;;;;5.68;2.30;;;;;;;35.43;25.91;100106.97;5071679;28;20409;-72
2022/08/05 06:53:27;;;;;;;5.10;2.53;;;;;;;35.49;24.95;100105.91;5071278;28;20078;-73
2022/08/05 06:55:58;;;;;;;6.72;2.40;;;;;;;35.34;25.13;100105.72;5073347;28;20072;-73
2022/08/05 06:58:27;;;;;;;7.00;2.47;;;;;;;35.14;26.03;100104.38;5072715;28;20110;-73
2022/08/05 07:01:05;;;;;;;8.13;2.33;;;;;;;35.33;25.63;100106.81;5071947;28;20050;-73
2022/08/05 07:03:34;;;;;;;7.05;2.63;;;;;;;35.36;26.03;100103.53;5072778;28;20140;-73
2022/08/05 07:06:04;;;;;;;5.30;2.30;;;;;;;34.87;25.48;100100.63;5072851;28;20068;-73
2022/08/05 07:08:42;;;;;;;4.50;2.30;;;;;;;33.74;27.16;100106.19;5073245;28;20048;-73
2022/08/05 07:11:18;;;;;;;4.95;2.30;;;;;;;32.93;28.45;100108.09;5072741;28;20481;-73
2022/08/05 07:16:50;;;;;;;5.07;2.15;;;;;;;32.30;28.94;100114.28;5071912;28;20097;-73
2022/08/05 07:19:39;;;;;;;5.57;2.60;;;;;;;32.27;29.34;100109.19;5072798;28;20082;-72
2022/08/05 07:22:27;;;;;;;8.50;2.80;;;;;;;32.27;30.15;100103.69;5071292;28;20075;-73
2022/08/05 07:24:59;;;;;;;7.72;2.50;;;;;;;32.08;29.21;100104.84;5072940;28;20038;-73
2022/08/05 07:27:47;;;;;;;5.68;2.13;;;;;;;32.05;28.55;100108.09;5072668;28;20041;-72
2022/08/05 07:30:32;;;;;;;4.32;2.22;;;;;;;31.88;28.35;100102.41;5071274;28;20070;-73
2022/08/05 07:33:02;;;;;;;6.40;2.30;;;;;;;31.84;28.44;100103.94;5072632;28;20088;-73
2022/08/05 07:35:36;;;;;;;4.40;2.78;;;;;;;31.92;28.71;100106.34;5072629;28;20048;-73
2022/08/05 07:38:25;;;;;;;9.18;2.70;;;;;;;31.84;29.34;100099.25;5071197;28;20052;-73
2022/08/05 07:41:04;;;;;;;6.90;2.40;;;;;;;31.65;29.46;100094.84;5073085;28;20489;-73
2022/08/05 07:43:54;;;;;;;11.88;2.97;;;;;;;31.65;29.43;100094.00;5072948;28;20504;-72
2022/08/05 07:46:26;;;;;;;5.78;2.45;;;;;;;31.51;30.00;100090.59;5076398;28;20095;-72
2022/08/05 07:48:56;;;;;;;4.20;2.50;;;;;;;31.68;28.75;100088.88;5076657;28;20378;-72
2022/08/05 07:51:34;;;;;;;8.98;3.10;;;;;;;31.69;28.35;100098.00;5076260;28;20045;-74
2022/08/05 07:54:05;;;;;;;5.38;2.50;;;;;;;31.76;28.78;100096.00;5076590;28;20036;-73
2022/08/05 07:56:37;;;;;;;9.52;2.80;;;;;;;31.66;28.85;100091.03;5074995;28;20059;-74
2022/08/05 07:59:25;;;;;;;7.50;2.50;;;;;;;31.73;28.58;100093.66;5076097;28;20044;-74
2022/08/05 08:02:09;;;;;;;4.47;2.47;;;;;;;31.71;29.13;100088.41;5076211;28;20040;-72
2022/08/05 08:04:45;;;;;;;7.25;2.80;;;;;;;31.65;29.00;100094.00;5076057;28;20119;-74
2022/08/05 08:07:14;;;;;;;4.57;2.50;;;;;;;31.63;29.57;100092.31;5074804;28;20044;-74
2022/08/05 08:09:43;;;;;;;4.88;2.70;;;;;;;31.49;29.59;100095.50;5075810;28;20064;-74
2022/08/05 08:12:12;;;;;;;7.88;3.03;;;;;;;31.38;29.50;100090.78;5075929;28;20451;-74
2022/08/05 08:15:01;;;;;;;5.05;2.53;;;;;;;31.52;29.70;100089.53;5076282;28;20121;-74
2022/08/05 08:17:33;;;;;;;8.27;2.90;;;;;;;31.54;29.44;100092.88;5075735;28;20158;-74
2022/08/05 08:20:04;;;;;;;7.40;2.88;;;;;;;31.61;29.18;100096.38;5075862;28;20413;-74
2022/08/05 08:22:53;;;;;;;5.90;2.63;;;;;;;31.56;29.48;100090.75;5075849;28;20037;-74
2022/08/05 08:25:23;;;;;;;5.05;2.60;;;;;;;31.52;29.57;100084.84;5075781;28;20045;-74
2022/08/05 08:28:11;;;;;;;6.85;2.97;;;;;;;31.69;29.56;100096.06;5075924;28;20049;-73
2022/08/05 08:30:46;;;;;;;5.78;2.60;;;;;;;31.62;29.05;100089.78;5075493;28;20060;-74
2022/08/05 08:33:18;;;;;;;5.10;2.53;;;;;;;31.60;29.85;100094.72;5075519;28;20043;-74
2022/08/05 08:35:47;;;;;;;4.85;3.05;;;;;;;31.56;29.72;100088.00;5075225;28;20056;-74
2022/08/05 08:38:35;;;;;;;6.72;2.75;;;;;;;31.58;29.05;100094.13;5074234;28;20148;-74
2022/08/05 08:41:07;;;;;;;7.20;2.63;;;;;;;31.63;29.21;100088.72;5074154;28;20052;-74
2022/08/05 08:43:37;;;;;;;8.10;3.10;;;;;;;31.62;29.41;100084.28;5075048;28;20044;-74
2022/08/05 08:46:27;;;;;;;4.63;2.83;;;;;;;31.54;30.06;100087.38;5075445;28;20044;-74
2022/08/05 08:48:58;;;;;;;6.70;2.90;;;;;;;31.57;30.20;100084.16;5075649;28;20115;-74
2022/08/05 08:51:48;;;;;;;8.05;2.80;;;;;;;31.79;30.09;100085.34;5075417;28;20047;-74
2022/08/05 08:54:35;;;;;;;7.97;2.92;;;;;;;31.86;28.99;100080.56;5074982;28;20037;-74
2022/08/05 08:57:06;;;;;;;5.28;2.70;;;;;;;31.90;29.19;100080.94;5073874;28;20056;-73
2022/08/05 08:59:38;;;;;;;4.93;3.00;;;;;;;32.03;28.37;100074.34;5074937;28;20448;-73
2022/08/05 09:02:16;;;;;;;7.00;3.10;;;;;;;31.98;28.34;100080.59;5075477;28;20066;-74
2022/08/05 12:01:36;;;;;;;4.35;2.97;;;;;;;33.92;25.73;99949.41;5152249;27;20359;-74
2022/08/05 12:04:05;;;;;;;4.18;3.20;;;;;;;33.85;25.30;99952.28;5152392;27;20049;-74
2022/08/05 12:06:35;;;;;;;5.35;3.38;;;;;;;33.92;25.43;99950.22;5152125;27;20039;-74
2022/08/05 12:09:18;;;;;;;5.00;3.25;;;;;;;34.13;24.86;99946.69;5151999;27;20062;-74
2022/08/05 12:11:47;;;;;;;5.80;3.20;;;;;;;34.27;24.58;99951.88;5150620;27;20074;-74
2022/08/05 12:14:17;;;;;;;6.13;3.22;;;;;;;34.23;24.59;99950.69;5150616;27;20092;-74
2022/08/05 12:16:47;;;;;;;6.82;3.30;;;;;;;34.22;24.14;99947.09;5151452;27;20042;-74
2022/08/05 12:19:17;;;;;;;4.90;2.88;;;;;;;34.18;23.92;99947.88;5150505;27;20137;-74
2022/08/05 12:22:06;;;;;;;7.75;3.10;;;;;;;34.17;24.49;99940.66;5150466;27;20115;-73
2022/08/05 12:24:41;;;;;;;3.93;3.10;;;;;;;34.25;23.41;99942.97;5150686;27;20050;-74
2022/08/05 12:27:21;;;;;;;5.50;3.00;;;;;;;34.17;23.86;99935.13;5151634;27;20035;-74
2022/08/05 12:30:01;;;;;;;6.65;3.22;;;;;;;34.19;23.95;99933.75;5151178;27;20047;-74
2022/08/05 12:32:34;;;;;;;4.05;2.58;;;;;;;34.20;24.24;99940.13;5150558;27;20475;-75
2022/08/05 12:35:06;;;;;;;4.60;3.00;;;;;;;34.34;23.86;99930.34;5151691;27;20479;-75
2022/08/05 12:37:35;;;;;;;4.88;2.80;;;;;;;34.38;23.68;99942.63;5151341;27;20380;-74
2022/08/05 12:40:09;;;;;;;5.88;2.80;;;;;;;34.12;23.96;99931.16;5150032;27;20475;-74
2022/08/05 12:42:53;;;;;;;9.30;3.10;;;;;;;34.27;24.34;99930.56;5150032;27;20047;-75
2022/08/05 12:45:21;;;;;;;6.18;3.10;;;;;;;34.23;24.23;99923.00;5151256;27;20070;-74
2022/08/05 12:48:17;;;;;;;4.22;3.15;;;;;;;34.01;24.13;99920.22;5150006;27;20123;-75
2022/08/05 12:51:19;;;;;;;3.40;2.83;;;;;;;33.87;24.32;99919.69;5149590;27;20055;-75
2022/08/05 12:54:08;;;;;;;5.82;3.20;;;;;;;33.81;24.97;99917.94;5150007;27;20051;-75
2022/08/05 12:56:48;;;;;;;4.47;3.30;;;;;;;33.98;24.42;99920.72;5150896;27;20039;-75
2022/08/05 12:59:20;;;;;;;6.45;3.45;;;;;;;33.99;24.55;99916.88;5150707;27;20039;-75
2022/08/05 13:02:09;;;;;;;5.07;3.28;;;;;;;34.23;24.55;99920.25;5151188;27;20042;-75
2022/08/05 13:04:40;;;;;;;5.63;3.17;;;;;;;34.40;24.36;99908.06;5149726;27;20043;-74
2022/08/05 13:07:23;;;;;;;6.93;2.90;;;;;;;34.44;24.24;99909.22;5149682;27;20461;-74
2022/08/05 13:10:13;;;;;;;5.88;3.13;;;;;;;34.50;24.68;99914.81;5149886;27;20051;-74
2022/08/05 13:12:47;;;;;;;4.53;3.30;;;;;;;34.46;24.14;99900.69;5137960;27;20036;-75
2022/08/05 13:15:30;;;;;;;5.32;3.00;;;;;;;34.43;24.23;99895.63;5137291;27;20076;-74
2022/08/05 13:18:17;;;;;;;;;;;;;;;34.40;23.94;99897.00;5137120;27;20071;-75
2022/08/05 13:20:49;;;;;;;7.00;2.90;;;;;;;34.42;23.65;99891.19;5136738;27;20328;-73
2022/08/05 13:23:17;;;;;;;5.35;3.33;;;;;;;34.33;24.05;99895.47;5136026;27;20058;-73
2022/08/05 13:25:50;;;;;;;5.90;3.00;;;;;;;34.19;23.13;99891.41;5136563;27;20035;-75
2022/08/05 13:28:29;;;;;;;5.55;2.90;;;;;;;34.03;23.72;99887.59;5135303;27;20043;-73
2022/08/05 13:30:59;;;;;;;4.57;2.80;;;;;;;34.18;24.48;99886.97;5136252;27;20070;-75
2022/08/05 13:33:42;;;;;;;5.33;3.37;;;;;;;34.41;23.60;99875.69;5135299;27;20051;-75
2022/08/05 13:36:32;;;;;;;4.45;2.92;;;;;;;34.55;23.11;99873.34;5136804;27;20054;-75
2022/08/05 13:39:01;;;;;;;9.60;2.97;;;;;;;34.51;24.12;99875.81;5136279;27;20047;-74
2022/08/05 13:41:49;;;;;;;4.90;3.00;;;;;;;34.46;23.45;99878.53;5136294;27;20398;-75
2022/08/05 13:44:17;;;;;;;4.30;3.05;;;;;;;34.38;23.66;99865.97;5136243;27;20504;-74
2022/08/05 13:46:46;;;;;;;6.72;3.15;;;;;;;34.32;23.53;99863.34;5136154;27;20035;-75
2022/08/05 13:49:34;;;;;;;5.82;2.97;;;;;;;34.33;23.93;99862.25;5136561;27;20043;-75
2022/08/05 13:52:11;;;;;;;5.30;2.72;;;;;;;34.37;23.85;99863.44;5135873;27;20047;-75
2022/08/05 13:54:40;;;;;;;7.47;3.40;;;;;;;34.38;23.26;99854.88;5136341;27;20060;-75
2022/08/05 13:57:09;;;;;;;4.95;2.65;;;;;;;34.39;23.20;99852.97;5136172;27;20044;-75
2022/08/05 13:59:43;;;;;;;4.80;2.95;;;;;;;34.35;23.19;99854.50;5135927;27;20066;-75
2022/08/05 14:02:26;;;;;;;4.50;2.83;;;;;;;34.25;23.77;99854.38;5136243;27;20036;-75
2022/08/05 14:05:12;;;;;;;5.97;3.00;;;;;;;34.16;22.73;99854.00;5135821;27;20087;-74
2022/08/05 14:07:47;;;;;;;5.03;3.22;;;;;;;33.96;23.55;99849.03;5135611;27;20487;-75
2022/08/05 14:10:34;;;;;;;5.88;3.13;;;;;;;34.06;23.22;99840.88;5134770;27;20054;-74
2022/08/05 14:13:04;;;;;;;9.00;3.22;;;;;;;34.05;23.34;99833.66;5135598;27;20039;-75
2022/08/05 14:15:33;;;;;;;5.88;3.03;;;;;;;34.20;24.13;99834.97;5135813;27;20043;-75
2022/08/05 14:18:22;;;;;;;5.70;3.38;;;;;;;34.27;23.28;99846.69;5135543;27;20047;-75
2022/08/05 14:20:51;;;;;;;5.72;2.90;;;;;;;34.20;23.49;99829.44;5135512;27;20043;-74
2022/08/05 14:23:23;;;;;;;5.85;3.08;;;;;;;34.11;23.96;99832.63;5134748;27;20411;-74
2022/08/05 14:25:55;;;;;;;6.07;2.97;;;;;;;34.23;24.01;99834.44;5135410;27;20447;-74
2022/08/05 14:28:27;;;;;;;5.82;2.72;;;;;;;34.20;23.93;99827.50;5135584;27;20063;-74
2022/08/05 14:30:55;;;;;;;5.32;3.10;;;;;;;34.25;23.63;99833.09;5134997;27;20054;-74
2022/08/05 14:33:24;;;;;;;4.75;2.90;;;;;;;34.39;23.04;99823.34;5135510;27;20039;-74
2022/08/05 14:35:52;;;;;;;7.03;3.15;;;;;;;34.34;23.57;99819.63;5134000;27;20046;-74
2022/08/05 14:38:22;;;;;;;5.85;2.78;;;;;;;34.34;24.25;99827.94;5135089;27;20522;-74
2022/08/05 14:41:05;;;;;;;6.22;2.95;;;;;;;34.34;23.55;99830.69;5135030;27;20042;-74
2022/08/05 14:43:36;;;;;;;4.82;2.75;;;;;;;34.30;23.17;99824.03;5135187;27;20570;-75
2022/08/05 14:46:25;;;;;;;7.95;3.10;;;;;;;34.24;23.08;99819.50;5135244;27;20043;-73
2022/08/05 14:48:57;;;;;;;5.32;2.70;;;;;;;34.18;23.78;99821.38;5134881;27;20063;-75
2022/08/05 14:51:27;;;;;;;4.45;2.70;;;;;;;34.21;23.88;99820.03;5135074;27;20498;-74
2022/08/05 14:53:59;;;;;;;5.90;3.03;;;;;;;34.20;23.91;99812.81;5135060;27;20091;-74
2022/08/05 14:56:48;;;;;;;6.57;3.00;;;;;;;34.02;23.52;99809.28;5133594;27;20047;-75
2022/08/05 14:59:20;;;;;;;4.97;2.63;;;;;;;34.04;23.59;99809.84;5134829;27;20043;-74
2022/08/05 15:01:49;;;;;;;5.70;2.75;;;;;;;34.05;23.64;99807.91;5133293;27;20050;-76
2022/08/05 15:04:17;;;;;;;6.75;2.95;;;;;;;34.09;23.21;99801.63;5134732;27;20441;-74
2022/08/05 15:06:49;;;;;;;7.80;2.70;;;;;;;34.11;22.57;99799.44;5135041;27;20039;-75
2022/08/05 15:09:19;;;;;;;5.43;2.78;;;;;;;33.98;23.92;99799.81;5134849;27;20389;-75
2022/08/05 15:12:08;;;;;;;5.93;2.83;;;;;;;34.01;23.43;99799.31;5134398;27;20039;-73